createdAt,value
2022-08-01T00:01:33.698Z,18.46
2022-08-01T00:04:01.936Z,18.44
2022-08-01T00:06:29.854Z,18.42
2022-08-01T00:08:58.644Z,18.40
2022-08-01T00:11:27.402Z,18.36
2022-08-01T00:13:56.564Z,18.33
2022-08-01T00:16:24.635Z,18.29
2022-08-01T00:18:57.520Z,18.26
2022-08-01T00:21:27.121Z,18.26
2022-08-01T00:23:56.038Z,18.27
2022-08-01T00:26:23.958Z,18.25
2022-08-01T00:28:51.954Z,18.22
2022-08-01T00:31:21.376Z,18.19
2022-08-01T00:33:50.089Z,18.16
2022-08-01T00:36:19.480Z,18.12
2022-08-01T00:38:47.365Z,18.10
2022-08-01T00:41:15.820Z,18.10
2022-08-01T00:43:44.343Z,18.08
2022-08-01T00:46:12.202Z,18.08
2022-08-01T00:49:41.753Z,18.10
2022-08-01T00:52:12.986Z,18.10
2022-08-01T00:54:41.146Z,18.11
2022-08-01T00:57:10.105Z,18.12
2022-08-01T00:59:39.876Z,18.10
2022-08-01T01:02:15.760Z,18.09
2022-08-01T01:04:43.994Z,18.08
2022-08-01T01:07:19.453Z,18.09
2022-08-01T01:09:54.848Z,18.08
2022-08-01T01:12:37.337Z,18.06
2022-08-01T01:15:09.902Z,18.08
2022-08-01T01:17:50.470Z,18.04
2022-08-01T01:20:24.229Z,18.02
2022-08-01T01:23:12.779Z,18.01
2022-08-01T01:25:47.642Z,17.99
2022-08-01T01:28:23.036Z,18.01
2022-08-01T01:30:54.143Z,17.98
2022-08-01T01:33:23.649Z,17.96
2022-08-01T01:35:55.309Z,17.97
2022-08-01T01:38:26.880Z,17.96
2022-08-01T01:40:56.146Z,17.96
2022-08-01T01:43:28.726Z,17.94
2022-08-01T01:45:58.557Z,17.92
2022-08-01T01:48:27.748Z,17.94
2022-08-01T01:50:58.061Z,17.94
2022-08-01T01:53:27.292Z,17.94
2022-08-01T01:56:56.508Z,17.92
2022-08-01T01:59:28.409Z,17.91
2022-08-01T02:02:08.828Z,17.95
2022-08-01T02:04:38.646Z,17.91
2022-08-01T02:07:08.170Z,17.92
2022-08-01T02:09:36.491Z,17.92
2022-08-01T02:12:09.216Z,17.94
2022-08-01T02:14:38.031Z,17.92
2022-08-01T02:17:07.653Z,17.91
2022-08-01T02:19:37.882Z,17.94
2022-08-01T02:22:10.161Z,17.96
2022-08-01T02:24:39.910Z,17.95
2022-08-01T02:27:11.509Z,17.95
2022-08-01T02:29:43.347Z,17.94
2022-08-01T02:32:22.685Z,17.95
2022-08-01T02:34:53.445Z,17.94
2022-08-01T02:37:22.195Z,17.94
2022-08-01T02:39:53.191Z,17.94
2022-08-01T02:42:21.137Z,17.94
2022-08-01T02:44:50.603Z,17.92
2022-08-01T02:47:22.342Z,17.92
2022-08-01T02:53:44.169Z,17.93
2022-08-01T02:56:14.368Z,17.92
2022-08-01T02:58:42.973Z,17.94
2022-08-01T03:01:11.615Z,17.92
2022-08-01T03:03:46.752Z,17.90
2022-08-01T03:06:15.616Z,17.91
2022-08-01T03:08:44.732Z,17.93
2022-08-01T03:11:13.716Z,17.92
2022-08-01T03:13:43.829Z,17.95
2022-08-01T03:17:15.684Z,17.92
2022-08-01T03:19:48.176Z,17.92
2022-08-01T03:22:18.053Z,17.93
2022-08-01T03:24:48.743Z,17.90
2022-08-01T03:27:20.371Z,17.89
2022-08-01T03:29:48.794Z,17.90
2022-08-01T03:32:17.485Z,17.90
2022-08-01T03:34:50.312Z,17.90
2022-08-01T03:37:25.153Z,17.89
2022-08-01T03:39:56.972Z,17.86
2022-08-01T03:42:27.594Z,17.86
2022-08-01T03:44:59.354Z,17.86
2022-08-01T03:47:33.164Z,17.88
2022-08-01T03:50:04.043Z,17.86
2022-08-01T03:52:32.892Z,17.87
2022-08-01T03:55:06.197Z,17.86
2022-08-01T03:57:35.783Z,17.86
2022-08-01T04:00:10.416Z,17.89
2022-08-01T04:02:39.192Z,17.86
2022-08-01T04:05:10.653Z,17.87
2022-08-01T04:07:40.331Z,17.83
2022-08-01T04:10:13.042Z,17.82
2022-08-01T04:12:41.263Z,17.78
2022-08-01T04:15:10.472Z,17.77
2022-08-01T04:17:38.546Z,17.76
2022-08-01T04:23:51.529Z,17.79
2022-08-01T04:26:21.447Z,17.77
2022-08-01T04:28:51.025Z,17.74
2022-08-01T04:31:19.771Z,17.77
2022-08-01T04:33:50.730Z,17.78
2022-08-01T04:36:20.421Z,17.82
2022-08-01T04:38:56.703Z,17.82
2022-08-01T04:41:25.090Z,17.83
2022-08-01T04:43:55.792Z,17.88
2022-08-01T04:46:25.772Z,17.88
2022-08-01T04:48:54.451Z,17.80
2022-08-01T04:51:23.385Z,17.82
2022-08-01T04:53:57.572Z,17.86
2022-08-01T04:56:31.276Z,17.87
2022-08-01T04:59:19.783Z,17.89
2022-08-01T05:01:51.006Z,17.89
2022-08-01T05:04:19.583Z,17.88
2022-08-01T05:06:47.430Z,17.92
2022-08-01T05:09:17.020Z,17.91
2022-08-01T05:11:45.792Z,17.92
2022-08-01T05:14:13.597Z,17.92
2022-08-01T05:16:42.793Z,17.95
2022-08-01T05:19:11.409Z,17.90
2022-08-01T05:21:39.561Z,17.97
2022-08-01T05:24:08.130Z,17.95
2022-08-01T05:26:38.400Z,17.96
2022-08-01T05:29:07.196Z,18.03
2022-08-01T05:31:35.811Z,18.00
2022-08-01T05:34:03.925Z,18.12
2022-08-01T05:36:32.292Z,18.12
2022-08-01T05:39:01.260Z,18.15
2022-08-01T05:41:30.223Z,18.07
2022-08-01T05:44:00.538Z,18.14
2022-08-01T05:46:29.215Z,18.16
2022-08-01T05:48:58.181Z,18.12
2022-08-01T05:51:26.261Z,18.16
2022-08-01T05:53:54.260Z,18.14
2022-08-01T05:56:23.139Z,18.18
2022-08-01T05:58:51.695Z,18.04
2022-08-01T06:01:24.675Z,18.05
2022-08-01T06:03:55.222Z,18.08
2022-08-01T06:06:25.580Z,18.09
2022-08-01T06:08:53.929Z,18.03
2022-08-01T06:11:22.694Z,18.09
2022-08-01T06:13:53.270Z,18.08
2022-08-01T06:16:22.753Z,18.08
2022-08-01T06:18:56.514Z,17.59
2022-08-01T06:21:25.682Z,17.44
2022-08-01T06:23:53.573Z,17.53
2022-08-01T06:26:22.447Z,17.62
2022-08-01T06:28:50.490Z,17.84
2022-08-01T06:31:18.394Z,19.51
2022-08-01T06:33:47.331Z,18.55
2022-08-01T06:36:14.937Z,18.58
2022-08-01T06:38:42.542Z,18.00
2022-08-01T06:41:10.260Z,18.23
2022-08-01T06:43:37.811Z,18.38
2022-08-01T06:46:06.340Z,18.27
2022-08-01T06:48:33.883Z,18.50
2022-08-01T06:51:14.632Z,18.53
2022-08-01T06:53:42.262Z,18.68
2022-08-01T06:56:11.858Z,18.76
2022-08-01T06:58:40.205Z,18.91
2022-08-01T07:01:08.411Z,18.84
2022-08-01T07:03:54.365Z,18.78
2022-08-01T07:06:24.696Z,18.87
2022-08-01T07:08:52.468Z,18.70
2022-08-01T07:11:20.353Z,18.73
2022-08-01T07:13:48.011Z,18.57
2022-08-01T07:16:16.342Z,18.81
2022-08-01T07:18:44.188Z,19.02
2022-08-01T07:21:38.896Z,19.15
2022-08-01T07:24:00.908Z,19.41
2022-08-01T07:26:28.607Z,19.52
2022-08-01T07:28:56.260Z,19.26
2022-08-01T07:31:27.347Z,19.05
2022-08-01T07:33:57.331Z,18.94
2022-08-01T07:36:25.316Z,18.45
2022-08-01T07:38:53.271Z,18.58
2022-08-01T07:41:22.780Z,18.64
2022-08-01T07:44:10.652Z,18.59
2022-08-01T07:46:39.125Z,18.77
2022-08-01T07:49:07.010Z,18.92
2022-08-01T07:51:34.785Z,19.06
2022-08-01T07:54:02.625Z,19.14
2022-08-01T07:56:31.712Z,19.10
2022-08-01T07:58:59.458Z,19.12
2022-08-01T08:01:28.409Z,18.78
2022-08-01T08:03:56.513Z,19.00
2022-08-01T08:06:24.222Z,19.26
2022-08-01T08:08:51.968Z,19.23
2022-08-01T08:11:19.780Z,19.37
2022-08-01T08:13:48.830Z,19.36
2022-08-01T08:16:16.766Z,19.46
2022-08-01T08:18:44.878Z,19.51
2022-08-01T08:21:13.508Z,19.66
2022-08-01T08:23:59.198Z,19.50
2022-08-01T08:26:27.655Z,19.33
2022-08-01T08:29:01.925Z,19.29
2022-08-01T08:32:31.587Z,19.39
2022-08-01T08:34:59.533Z,19.54
2022-08-01T08:37:31.488Z,19.45
2022-08-01T08:40:08.095Z,19.71
2022-08-01T08:42:36.918Z,19.76
2022-08-01T08:45:11.928Z,19.44
2022-08-01T08:47:40.633Z,19.53
2022-08-01T08:50:09.058Z,19.49
2022-08-01T08:52:40.696Z,19.52
2022-08-01T08:55:10.361Z,19.56
2022-08-01T08:57:41.864Z,19.18
2022-08-01T09:00:14.297Z,18.99
2022-08-01T09:02:43.923Z,19.08
2022-08-01T09:05:18.937Z,18.74
2022-08-01T09:07:49.302Z,18.66
2022-08-01T09:11:22.962Z,18.87
2022-08-01T09:14:05.038Z,18.57
2022-08-01T09:16:44.210Z,19.01
2022-08-01T09:19:39.812Z,18.85
2022-08-01T09:22:09.745Z,18.56
2022-08-01T09:24:39.443Z,18.51
2022-08-01T09:27:21.733Z,18.83
2022-08-01T09:30:01.613Z,18.50
2022-08-01T09:32:36.453Z,18.71
2022-08-01T09:35:31.151Z,18.64
2022-08-01T09:38:16.860Z,19.12
2022-08-01T09:40:49.502Z,18.80
2022-08-01T09:43:19.188Z,18.84
2022-08-01T09:45:50.598Z,19.12
2022-08-01T09:48:28.456Z,18.76
2022-08-01T09:51:04.695Z,18.76
2022-08-01T09:53:51.391Z,18.79
2022-08-01T09:56:23.411Z,18.84
2022-08-01T09:58:59.914Z,18.62
2022-08-01T10:01:37.389Z,18.27
2022-08-01T10:04:12.112Z,18.46
2022-08-01T10:06:44.079Z,18.03
2022-08-01T10:09:13.296Z,18.43
2022-08-01T10:11:43.272Z,18.41
2022-08-01T10:14:14.770Z,18.79
2022-08-01T10:16:53.547Z,18.78
2022-08-01T10:19:30.066Z,19.12
2022-08-01T10:22:01.035Z,18.92
2022-08-01T10:24:31.185Z,19.28
2022-08-01T10:27:09.155Z,19.47
2022-08-01T10:29:45.623Z,19.63
2022-08-01T10:32:17.281Z,19.88
2022-08-01T10:34:46.952Z,20.00
2022-08-01T10:37:18.187Z,20.37
2022-08-01T10:39:46.986Z,20.54
2022-08-01T10:42:15.593Z,20.97
2022-08-01T10:44:47.236Z,20.87
2022-08-01T10:47:23.024Z,20.41
2022-08-01T10:50:01.208Z,20.16
2022-08-01T10:52:30.703Z,19.81
2022-08-01T10:55:04.793Z,19.59
2022-08-01T10:57:44.490Z,19.51
2022-08-01T11:00:21.580Z,19.50
2022-08-01T11:03:01.750Z,19.51
2022-08-01T11:05:34.073Z,19.63
2022-08-01T11:08:04.327Z,20.06
2022-08-01T11:10:37.097Z,20.23
2022-08-01T11:13:08.928Z,20.20
2022-08-01T11:15:50.160Z,20.49
2022-08-01T11:18:37.504Z,20.78
2022-08-01T11:21:57.880Z,20.11
2022-08-01T11:23:55.560Z,20.12
2022-08-01T11:26:29.131Z,20.18
2022-08-01T11:29:22.118Z,19.83
2022-08-01T11:31:52.894Z,19.43
2022-08-01T11:34:55.479Z,19.16
2022-08-01T11:37:30.801Z,19.22
2022-08-01T11:40:18.710Z,18.97
2022-08-01T11:42:47.076Z,19.00
2022-08-01T11:45:18.671Z,18.85
2022-08-01T11:47:47.951Z,19.04
2022-08-01T11:50:37.167Z,19.19
2022-08-01T11:53:11.377Z,19.26
2022-08-01T11:55:47.652Z,19.17
2022-08-01T11:58:27.505Z,19.84
2022-08-01T12:00:59.309Z,19.93
2022-08-01T12:03:33.014Z,20.10
2022-08-01T12:06:01.893Z,20.16
2022-08-01T12:08:34.125Z,20.40
2022-08-01T12:11:02.771Z,20.64
2022-08-01T12:13:41.756Z,20.50
2022-08-01T12:16:10.436Z,20.78
2022-08-01T12:18:40.979Z,20.53
2022-08-01T12:21:09.483Z,20.90
2022-08-01T12:23:39.662Z,21.08
2022-08-01T12:26:08.501Z,20.90
2022-08-01T12:28:57.044Z,20.98
2022-08-01T12:31:33.643Z,21.18
2022-08-01T12:34:29.875Z,21.57
2022-08-01T12:36:58.935Z,21.94
2022-08-01T12:43:15.850Z,22.84
2022-08-01T12:45:57.336Z,22.35
2022-08-01T12:48:26.550Z,22.99
2022-08-01T12:50:57.028Z,22.84
2022-08-01T12:53:39.660Z,22.75
2022-08-01T12:56:12.127Z,22.34
2022-08-01T12:58:45.359Z,22.38
2022-08-01T13:01:14.516Z,22.46
2022-08-01T13:03:42.572Z,21.74
2022-08-01T13:06:17.759Z,22.41
2022-08-01T13:08:47.844Z,22.11
2022-08-01T13:12:20.774Z,23.01
2022-08-01T13:14:50.372Z,23.28
2022-08-01T13:17:32.931Z,23.34
2022-08-01T13:20:01.498Z,22.57
2022-08-01T13:22:34.611Z,22.89
2022-08-01T13:25:13.083Z,22.96
2022-08-01T13:27:53.529Z,22.89
2022-08-01T13:30:25.196Z,22.91
2022-08-01T13:33:03.096Z,23.04
2022-08-01T13:35:31.280Z,23.17
2022-08-01T13:37:59.268Z,23.43
2022-08-01T13:40:28.349Z,24.58
2022-08-01T13:42:57.735Z,24.92
2022-08-01T13:45:26.900Z,25.66
2022-08-01T13:48:03.707Z,26.04
2022-08-01T13:50:40.682Z,25.79
2022-08-01T13:53:09.085Z,24.34
2022-08-01T13:55:37.471Z,23.36
2022-08-01T13:58:06.175Z,23.97
2022-08-01T14:00:36.902Z,24.42
2022-08-01T14:03:05.195Z,26.03
2022-08-01T14:05:33.925Z,25.30
2022-08-01T14:08:02.976Z,24.86
2022-08-01T14:10:32.645Z,23.96
2022-08-01T14:13:01.956Z,23.24
2022-08-01T14:16:31.077Z,23.09
2022-08-01T14:19:04.069Z,23.52
2022-08-01T14:21:32.897Z,23.33
2022-08-01T14:24:07.685Z,25.22
2022-08-01T14:26:38.042Z,24.36
2022-08-01T14:29:06.186Z,24.84
2022-08-01T14:31:34.673Z,24.00
2022-08-01T14:34:05.166Z,25.99
2022-08-01T14:36:38.109Z,24.64
2022-08-01T14:39:07.363Z,24.77
2022-08-01T14:41:43.041Z,25.87
2022-08-01T14:44:15.340Z,25.42
2022-08-01T14:46:57.874Z,25.95
2022-08-01T14:49:28.160Z,25.44
2022-08-01T14:51:56.234Z,26.41
2022-08-01T14:54:26.746Z,26.77
2022-08-01T14:56:58.435Z,25.57
2022-08-01T14:59:27.462Z,24.80
2022-08-01T15:01:57.312Z,24.30
2022-08-01T15:04:31.605Z,23.30
2022-08-01T15:07:00.566Z,23.02
2022-08-01T15:14:10.880Z,23.38
2022-08-01T15:16:40.686Z,23.94
2022-08-01T15:19:10.733Z,24.06
2022-08-01T15:22:43.053Z,24.61
2022-08-01T15:25:12.659Z,24.72
2022-08-01T15:27:41.784Z,26.72
2022-08-01T15:30:10.643Z,29.10
2022-08-01T15:32:39.921Z,27.36
2022-08-01T15:35:11.596Z,26.14
2022-08-01T15:37:43.225Z,25.74
2022-08-01T15:40:14.026Z,24.29
2022-08-01T15:42:42.657Z,25.04
2022-08-01T15:45:37.383Z,24.53
2022-08-01T15:48:05.337Z,24.65
2022-08-01T15:55:15.915Z,28.69
2022-08-01T15:57:46.159Z,30.31
2022-08-01T16:00:15.182Z,31.26
2022-08-01T16:06:24.837Z,32.10
2022-08-01T16:08:53.736Z,31.33
2022-08-01T16:16:03.270Z,29.63
2022-08-01T16:22:15.547Z,28.79
2022-08-01T16:24:43.922Z,25.71
2022-08-01T16:27:13.849Z,24.79
2022-08-01T16:29:43.021Z,23.77
2022-08-01T16:32:22.569Z,23.74
2022-08-01T16:34:53.668Z,23.40
2022-08-01T16:37:24.150Z,22.51
2022-08-01T16:39:52.357Z,22.86
2022-08-01T16:42:27.512Z,22.18
2022-08-01T16:45:57.062Z,22.25
2022-08-01T16:48:27.000Z,22.54
2022-08-01T16:51:59.463Z,22.58
2022-08-01T16:54:32.708Z,22.69
2022-08-01T16:57:08.506Z,22.36
2022-08-01T16:59:41.328Z,22.34
2022-08-01T17:02:12.215Z,22.38
2022-08-01T17:08:22.867Z,22.23
2022-08-01T17:10:53.342Z,22.00
2022-08-01T17:13:23.597Z,21.97
2022-08-01T17:15:53.692Z,22.03
2022-08-01T17:23:03.975Z,21.68
2022-08-01T17:26:33.398Z,21.80
2022-08-01T17:29:04.021Z,21.80
2022-08-01T17:31:33.370Z,21.44
2022-08-01T17:34:02.303Z,21.40
2022-08-01T17:36:30.712Z,21.43
2022-08-01T17:39:00.276Z,21.44
2022-08-01T17:41:30.702Z,21.35
2022-08-01T17:44:00.823Z,21.40
2022-08-01T17:46:31.648Z,21.22
2022-08-01T17:51:45.822Z,20.90
2022-08-01T17:57:56.218Z,20.61
2022-08-01T18:00:24.720Z,20.83
2022-08-01T18:03:57.421Z,21.08
2022-08-01T18:06:28.997Z,21.20
2022-08-01T18:12:39.568Z,20.83
2022-08-01T18:15:10.178Z,20.85
2022-08-01T18:21:25.575Z,20.81
2022-08-01T18:23:55.421Z,20.82
2022-08-01T18:26:23.700Z,20.44
2022-08-01T18:28:52.205Z,20.09
2022-08-01T18:31:23.563Z,19.69
2022-08-01T18:33:51.722Z,20.07
2022-08-01T18:36:32.952Z,19.79
2022-08-01T18:42:51.792Z,19.86
2022-08-01T18:45:21.393Z,20.15
2022-08-01T18:47:49.917Z,19.38
2022-08-01T18:50:18.943Z,19.74
2022-08-01T18:52:47.977Z,19.67
2022-08-01T18:55:17.834Z,19.63
2022-08-01T18:57:46.840Z,19.30
2022-08-01T19:00:15.694Z,18.48
2022-08-01T19:02:43.899Z,18.38
2022-08-01T19:05:13.130Z,18.26
2022-08-01T19:08:05.547Z,18.26
2022-08-01T19:10:33.465Z,18.04
2022-08-01T19:13:02.389Z,17.75
2022-08-01T19:15:34.796Z,18.03
2022-08-01T19:18:03.391Z,17.93
2022-08-01T19:20:32.756Z,17.77
2022-08-01T19:23:21.400Z,18.19
2022-08-01T19:25:55.640Z,17.62
2022-08-01T19:28:26.103Z,16.97
2022-08-01T19:30:55.459Z,16.70
2022-08-01T19:34:26.685Z,16.55
2022-08-01T19:37:00.101Z,16.03
2022-08-01T19:39:29.344Z,15.87
2022-08-01T19:42:04.397Z,15.81
2022-08-01T19:44:33.486Z,15.76
2022-08-01T19:47:02.439Z,15.55
2022-08-01T19:50:31.754Z,15.91
2022-08-01T19:53:02.356Z,16.49
2022-08-01T19:55:34.244Z,15.81
2022-08-01T19:58:26.465Z,16.25
2022-08-01T20:00:55.888Z,15.85
2022-08-01T20:03:25.252Z,15.99
2022-08-01T20:05:54.513Z,15.98
2022-08-01T20:08:23.435Z,15.68
2022-08-01T20:10:52.148Z,16.23
2022-08-01T20:13:22.222Z,16.45
2022-08-01T20:15:53.986Z,15.89
2022-08-01T20:18:22.053Z,15.95
2022-08-01T20:20:51.332Z,16.44
2022-08-01T20:23:21.437Z,16.66
2022-08-01T20:25:53.453Z,16.26
2022-08-01T20:28:27.913Z,15.89
2022-08-01T20:31:03.518Z,15.43
2022-08-01T20:33:36.362Z,15.38
2022-08-01T20:36:05.633Z,15.24
2022-08-01T20:38:42.196Z,15.01
2022-08-01T20:41:10.763Z,14.95
2022-08-01T20:43:43.624Z,15.57
2022-08-01T20:46:13.950Z,16.23
2022-08-01T20:48:41.919Z,16.30
2022-08-01T20:51:19.885Z,16.45
2022-08-01T20:53:52.628Z,15.69
2022-08-01T20:56:30.965Z,15.28
2022-08-01T20:59:06.768Z,14.83
2022-08-01T21:01:40.587Z,14.42
2022-08-01T21:04:29.731Z,14.32
2022-08-01T21:07:05.054Z,14.06
2022-08-01T21:09:39.474Z,14.00
2022-08-01T21:12:14.776Z,14.22
2022-08-01T21:14:53.743Z,13.96
2022-08-01T21:17:33.928Z,14.06
2022-08-01T21:20:07.615Z,14.09
2022-08-01T21:22:39.141Z,13.79
2022-08-01T21:25:11.105Z,13.91
2022-08-01T21:27:41.127Z,13.86
2022-08-01T21:30:11.754Z,13.95
2022-08-01T21:32:43.111Z,13.71
2022-08-01T21:35:15.978Z,14.02
2022-08-01T21:42:01.688Z,13.53
2022-08-01T21:44:16.670Z,13.85
2022-08-01T21:46:47.208Z,13.46
2022-08-01T21:49:15.342Z,13.37
2022-08-01T21:51:45.699Z,13.43
2022-08-01T21:54:26.110Z,13.34
2022-08-01T21:57:00.740Z,13.12
2022-08-01T21:59:34.432Z,12.98
2022-08-01T22:02:09.384Z,12.98
2022-08-01T22:04:44.565Z,12.80
2022-08-01T22:07:15.649Z,12.84
2022-08-01T22:09:47.166Z,12.76
2022-08-01T22:12:18.271Z,12.89
2022-08-01T22:14:49.459Z,12.71
2022-08-01T22:17:22.662Z,12.73
2022-08-01T22:19:53.953Z,12.94
2022-08-01T22:22:44.525Z,12.55
2022-08-01T22:25:12.353Z,12.91
2022-08-01T22:28:07.828Z,12.68
2022-08-01T22:30:30.367Z,12.73
2022-08-01T22:33:07.888Z,12.55
2022-08-01T22:35:46.925Z,12.56
2022-08-01T22:38:14.967Z,12.57
2022-08-01T22:40:50.171Z,12.53
2022-08-01T22:43:26.142Z,12.63
2022-08-01T22:46:04.147Z,13.52
2022-08-01T22:48:39.754Z,13.78
2022-08-01T22:51:12.022Z,13.92
2022-08-01T22:53:45.005Z,14.10
2022-08-01T22:56:14.903Z,13.90
2022-08-01T22:58:45.046Z,13.82
2022-08-01T23:01:21.298Z,12.97
2022-08-01T23:03:52.124Z,12.74
2022-08-01T23:06:26.017Z,12.50
2022-08-01T23:08:57.507Z,12.38
2022-08-01T23:11:25.430Z,12.14
2022-08-01T23:13:53.919Z,12.23
2022-08-01T23:16:23.663Z,12.21
2022-08-01T23:18:57.146Z,12.05
2022-08-01T23:21:25.260Z,11.92
2022-08-01T23:23:55.443Z,11.85
2022-08-01T23:26:25.294Z,11.72
2022-08-01T23:28:54.207Z,11.81
2022-08-01T23:31:55.577Z,11.85
2022-08-01T23:34:19.616Z,11.65
2022-08-01T23:36:48.002Z,11.94
2022-08-01T23:39:17.012Z,11.72
2022-08-01T23:41:57.300Z,11.89
2022-08-01T23:44:26.643Z,12.09
2022-08-01T23:46:54.577Z,12.06
2022-08-01T23:49:27.305Z,12.12
2022-08-01T23:51:56.276Z,11.85
2022-08-01T23:54:24.813Z,11.66
2022-08-01T23:56:52.965Z,11.49
2022-08-01T23:59:21.357Z,11.64
